sensor_id;sensor_type;location;lat;lon;timestamp;temperature;humidity
55151;DHT22;41041;43.162;20.538;2023-08-06T00:01:53;512.50;2380.80
55151;DHT22;41041;43.162;20.538;2023-08-06T00:04:34;512.60;2380.80
55151;DHT22;41041;43.162;20.538;2023-08-06T00:07:04;512.60;2380.80
55151;DHT22;41041;43.162;20.538;2023-08-06T00:09:40;512.60;2380.80
55151;DHT22;41041;43.162;20.538;2023-08-06T00:12:41;512.60;2380.80
55151;DHT22;41041;43.162;20.538;2023-08-06T00:15:18;512.60;2380.80
55151;DHT22;41041;43.162;20.538;2023-08-06T00:17:49;512.60;2380.80
55151;DHT22;41041;43.162;20.538;2023-08-06T00:20:25;512.60;2380.80
55151;DHT22;41041;43.162;20.538;2023-08-06T00:22:56;512.60;2380.80
55151;DHT22;41041;43.162;20.538;2023-08-06T00:25:30;512.60;2380.80
55151;DHT22;41041;43.162;20.538;2023-08-06T00:28:22;512.60;2380.80
55151;DHT22;41041;43.162;20.538;2023-08-06T00:30:58;512.50;2380.80
55151;DHT22;41041;43.162;20.538;2023-08-06T00:33:24;512.60;2380.80
55151;DHT22;41041;43.162;20.538;2023-08-06T00:35:51;512.60;2380.80
55151;DHT22;41041;43.162;20.538;2023-08-06T00:38:22;512.60;2380.80
55151;DHT22;41041;43.162;20.538;2023-08-06T00:40:48;512.80;2380.80
55151;DHT22;41041;43.162;20.538;2023-08-06T00:43:16;512.70;2380.80
55151;DHT22;41041;43.162;20.538;2023-08-06T00:45:43;512.80;2380.80
55151;DHT22;41041;43.162;20.538;2023-08-06T00:48:10;512.60;2380.80
55151;DHT22;41041;43.162;20.538;2023-08-06T00:50:36;512.40;2380.80
55151;DHT22;41041;43.162;20.538;2023-08-06T00:53:02;512.20;2380.80
55151;DHT22;41041;43.162;20.538;2023-08-06T00:55:32;512.30;2380.80
55151;DHT22;41041;43.162;20.538;2023-08-06T00:57:58;512.30;2380.80
55151;DHT22;41041;43.162;20.538;2023-08-06T01:00:35;512.30;2380.80
55151;DHT22;41041;43.162;20.538;2023-08-06T01:03:04;512.40;2380.80
55151;DHT22;41041;43.162;20.538;2023-08-06T01:05:35;512.50;2380.80
55151;DHT22;41041;43.162;20.538;2023-08-06T01:14:24;512.60;2380.80
55151;DHT22;41041;43.162;20.538;2023-08-06T01:16:55;512.60;2380.80
55151;DHT22;41041;43.162;20.538;2023-08-06T01:19:22;512.60;2380.80
55151;DHT22;41041;43.162;20.538;2023-08-06T01:21:48;512.60;2380.80
55151;DHT22;41041;43.162;20.538;2023-08-06T01:24:25;512.60;2380.80
55151;DHT22;41041;43.162;20.538;2023-08-06T01:27:11;512.70;2380.80
55151;DHT22;41041;43.162;20.538;2023-08-06T01:29:56;512.60;2380.80
55151;DHT22;41041;43.162;20.538;2023-08-06T01:32:23;512.70;2380.80
55151;DHT22;41041;43.162;20.538;2023-08-06T01:34:51;512.60;2380.80
55151;DHT22;41041;43.162;20.538;2023-08-06T01:37:17;512.50;2380.80
55151;DHT22;41041;43.162;20.538;2023-08-06T01:39:43;512.60;2380.80
55151;DHT22;41041;43.162;20.538;2023-08-06T01:42:15;512.60;2380.80
55151;DHT22;41041;43.162;20.538;2023-08-06T01:44:41;512.50;2380.80
55151;DHT22;41041;43.162;20.538;2023-08-06T01:47:07;512.60;2380.80
55151;DHT22;41041;43.162;20.538;2023-08-06T01:49:33;512.50;2380.80
55151;DHT22;41041;43.162;20.538;2023-08-06T01:51:58;512.40;2380.80
55151;DHT22;41041;43.162;20.538;2023-08-06T01:54:24;512.40;2380.80
55151;DHT22;41041;43.162;20.538;2023-08-06T01:56:51;512.40;2380.80
55151;DHT22;41041;43.162;20.538;2023-08-06T01:59:17;512.30;2380.80
55151;DHT22;41041;43.162;20.538;2023-08-06T02:01:43;512.30;2380.80
55151;DHT22;41041;43.162;20.538;2023-08-06T02:04:22;512.30;2380.80
55151;DHT22;41041;43.162;20.538;2023-08-06T02:06:55;512.20;2380.80
55151;DHT22;41041;43.162;20.538;2023-08-06T02:09:21;512.10;2380.80
55151;DHT22;41041;43.162;20.538;2023-08-06T02:11:49;512.00;2380.80
55151;DHT22;41041;43.162;20.538;2023-08-06T02:14:14;512.00;2380.80
55151;DHT22;41041;43.162;20.538;2023-08-06T02:16:40;512.00;2380.80
55151;DHT22;41041;43.162;20.538;2023-08-06T02:19:08;512.00;2380.80
55151;DHT22;41041;43.162;20.538;2023-08-06T02:21:34;487.30;2380.80
55151;DHT22;41041;43.162;20.538;2023-08-06T02:24:00;487.20;2380.80
55151;DHT22;41041;43.162;20.538;2023-08-06T02:26:29;487.20;2380.80
55151;DHT22;41041;43.162;20.538;2023-08-06T02:28:55;487.20;2380.80
55151;DHT22;41041;43.162;20.538;2023-08-06T02:31:21;487.20;2380.80
55151;DHT22;41041;43.162;20.538;2023-08-06T02:33:48;487.20;2380.80
55151;DHT22;41041;43.162;20.538;2023-08-06T02:36:14;487.20;2380.80
55151;DHT22;41041;43.162;20.538;2023-08-06T02:38:40;487.20;2380.80
55151;DHT22;41041;43.162;20.538;2023-08-06T02:41:06;487.20;2380.80
55151;DHT22;41041;43.162;20.538;2023-08-06T02:43:32;487.20;2380.80
55151;DHT22;41041;43.162;20.538;2023-08-06T02:45:58;487.10;2380.80
55151;DHT22;41041;43.162;20.538;2023-08-06T02:48:24;487.10;2380.80
55151;DHT22;41041;43.162;20.538;2023-08-06T02:50:50;487.00;2380.80
55151;DHT22;41041;43.162;20.538;2023-08-06T02:53:16;487.00;2380.80
55151;DHT22;41041;43.162;20.538;2023-08-06T02:55:46;487.00;2380.80
55151;DHT22;41041;43.162;20.538;2023-08-06T02:58:16;486.90;2380.80
55151;DHT22;41041;43.162;20.538;2023-08-06T03:00:43;486.90;2380.80
55151;DHT22;41041;43.162;20.538;2023-08-06T03:03:09;486.90;2380.80
55151;DHT22;41041;43.162;20.538;2023-08-06T03:05:35;486.90;2380.80
55151;DHT22;41041;43.162;20.538;2023-08-06T03:08:01;486.80;2380.80
55151;DHT22;41041;43.162;20.538;2023-08-06T03:10:27;486.90;2380.80
55151;DHT22;41041;43.162;20.538;2023-08-06T03:12:53;486.80;2380.80
55151;DHT22;41041;43.162;20.538;2023-08-06T03:15:19;486.80;2380.80
55151;DHT22;41041;43.162;20.538;2023-08-06T03:17:44;486.80;2380.80
55151;DHT22;41041;43.162;20.538;2023-08-06T03:20:10;486.80;2380.80
55151;DHT22;41041;43.162;20.538;2023-08-06T03:25:24;486.70;2380.80
55151;DHT22;41041;43.162;20.538;2023-08-06T07:26:02;563.50;2432.00
55151;DHT22;41041;43.162;20.538;2023-08-06T07:32:08;563.20;2432.00
55151;DHT22;41041;43.162;20.538;2023-08-06T07:37:56;563.20;2432.00
55151;DHT22;41041;43.162;20.538;2023-08-06T07:43:49;563.30;2432.00
55151;DHT22;41041;43.162;20.538;2023-08-06T07:49:47;563.40;2432.00
55151;DHT22;41041;43.162;20.538;2023-08-06T07:52:13;563.90;2432.00
55151;DHT22;41041;43.162;20.538;2023-08-06T07:54:39;564.00;2432.00
55151;DHT22;41041;43.162;20.538;2023-08-06T08:07:07;564.00;2432.00
55151;DHT22;41041;43.162;20.538;2023-08-06T08:09:39;564.00;2432.00
55151;DHT22;41041;43.162;20.538;2023-08-06T08:18:57;588.90;2432.00
55151;DHT22;41041;43.162;20.538;2023-08-06T08:21:23;588.90;2432.00
55151;DHT22;41041;43.162;20.538;2023-08-06T08:23:54;588.90;2432.00
55151;DHT22;41041;43.162;20.538;2023-08-06T08:29:42;589.10;2432.00
55151;DHT22;41041;43.162;20.538;2023-08-06T08:35:30;589.20;2432.00
55151;DHT22;41041;43.162;20.538;2023-08-06T08:41:20;614.50;2432.00
55151;DHT22;41041;43.162;20.538;2023-08-06T09:00:50;615.30;2432.00
55151;DHT22;41041;43.162;20.538;2023-08-06T09:03:17;615.10;2432.00
55151;DHT22;41041;43.162;20.538;2023-08-06T09:08:29;640.20;2432.00
55151;DHT22;41041;43.162;20.538;2023-08-06T09:25:46;640.30;2432.00
55151;DHT22;41041;43.162;20.538;2023-08-06T09:28:12;640.10;2432.00
55151;DHT22;41041;43.162;20.538;2023-08-06T09:38:59;640.80;2432.00
55151;DHT22;41041;43.162;20.538;2023-08-06T09:41:28;640.60;2432.00
55151;DHT22;41041;43.162;20.538;2023-08-06T09:47:19;640.50;2432.00
55151;DHT22;41041;43.162;20.538;2023-08-06T09:49:48;640.60;2432.00
55151;DHT22;41041;43.162;20.538;2023-08-06T09:52:16;640.60;2432.00
55151;DHT22;41041;43.162;20.538;2023-08-06T09:54:43;640.70;2432.00
55151;DHT22;41041;43.162;20.538;2023-08-06T09:57:12;640.80;2432.00
55151;DHT22;41041;43.162;20.538;2023-08-06T09:59:39;640.80;2432.00
55151;DHT22;41041;43.162;20.538;2023-08-06T10:02:27;640.90;2432.00
55151;DHT22;41041;43.162;20.538;2023-08-06T10:04:53;640.90;2432.00
55151;DHT22;41041;43.162;20.538;2023-08-06T10:07:21;640.80;2432.00
55151;DHT22;41041;43.162;20.538;2023-08-06T10:09:48;640.90;2432.00
55151;DHT22;41041;43.162;20.538;2023-08-06T10:12:17;640.90;2432.00
55151;DHT22;41041;43.162;20.538;2023-08-06T10:14:46;640.90;2406.40
55151;DHT22;41041;43.162;20.538;2023-08-06T10:17:13;640.90;2432.00
55151;DHT22;41041;43.162;20.538;2023-08-06T10:19:38;640.80;2432.00
55151;DHT22;41041;43.162;20.538;2023-08-06T10:22:22;640.60;2432.00
55151;DHT22;41041;43.162;20.538;2023-08-06T10:27:21;640.50;2432.00
55151;DHT22;41041;43.162;20.538;2023-08-06T10:29:47;640.30;2432.00
55151;DHT22;41041;43.162;20.538;2023-08-06T10:32:14;640.00;2432.00
55151;DHT22;41041;43.162;20.538;2023-08-06T10:34:54;615.20;2432.00
55151;DHT22;41041;43.162;20.538;2023-08-06T10:37:21;615.20;2432.00
55151;DHT22;41041;43.162;20.538;2023-08-06T10:39:52;615.20;2432.00
55151;DHT22;41041;43.162;20.538;2023-08-06T10:42:36;615.30;2432.00
55151;DHT22;41041;43.162;20.538;2023-08-06T10:45:15;640.00;2432.00
55151;DHT22;41041;43.162;20.538;2023-08-06T10:47:42;640.10;2432.00
55151;DHT22;41041;43.162;20.538;2023-08-06T10:50:11;640.10;2432.00
55151;DHT22;41041;43.162;20.538;2023-08-06T10:53:24;640.30;2432.00
55151;DHT22;41041;43.162;20.538;2023-08-06T10:55:50;640.40;2432.00
55151;DHT22;41041;43.162;20.538;2023-08-06T10:58:16;640.40;2432.00
55151;DHT22;41041;43.162;20.538;2023-08-06T11:00:42;640.40;2432.00
55151;DHT22;41041;43.162;20.538;2023-08-06T11:03:08;640.50;2432.00
55151;DHT22;41041;43.162;20.538;2023-08-06T11:08:57;640.40;2432.00
55151;DHT22;41041;43.162;20.538;2023-08-06T11:11:23;640.40;2432.00
55151;DHT22;41041;43.162;20.538;2023-08-06T11:13:52;640.50;2432.00
55151;DHT22;41041;43.162;20.538;2023-08-06T11:16:20;640.60;2432.00
55151;DHT22;41041;43.162;20.538;2023-08-06T11:18:47;640.70;2432.00
55151;DHT22;41041;43.162;20.538;2023-08-06T11:21:21;640.90;2432.00
55151;DHT22;41041;43.162;20.538;2023-08-06T12:13:34;691.20;2278.40
55151;DHT22;41041;43.162;20.538;2023-08-06T12:16:00;666.40;2278.40
55151;DHT22;41041;43.162;20.538;2023-08-06T12:18:25;666.30;2278.40
55151;DHT22;41041;43.162;20.538;2023-08-06T12:20:51;666.50;2176.00
55151;DHT22;41041;43.162;20.538;2023-08-06T12:23:17;666.50;2099.20
55151;DHT22;41041;43.162;20.538;2023-08-06T12:25:43;691.20;2099.20
55151;DHT22;41041;43.162;20.538;2023-08-06T12:28:10;691.30;2124.80
55151;DHT22;41041;43.162;20.538;2023-08-06T12:30:37;691.50;2176.00
55151;DHT22;41041;43.162;20.538;2023-08-06T12:58:27;691.60;1945.60
55151;DHT22;41041;43.162;20.538;2023-08-06T13:01:00;691.70;1920.00
55151;DHT22;41041;43.162;20.538;2023-08-06T13:03:28;691.70;1894.40
55151;DHT22;41041;43.162;20.538;2023-08-06T13:05:54;691.80;1920.00
55151;DHT22;41041;43.162;20.538;2023-08-06T13:08:19;692.00;1894.40
55151;DHT22;41041;43.162;20.538;2023-08-06T13:25:24;717.00;1971.20
55151;DHT22;41041;43.162;20.538;2023-08-06T13:27:53;716.80;1945.60
55151;DHT22;41041;43.162;20.538;2023-08-06T13:30:20;692.10;1920.00
55151;DHT22;41041;43.162;20.538;2023-08-06T13:32:48;692.00;1920.00
55151;DHT22;41041;43.162;20.538;2023-08-06T13:35:14;691.90;1868.80
55151;DHT22;41041;43.162;20.538;2023-08-06T13:37:40;691.80;1868.80
55151;DHT22;41041;43.162;20.538;2023-08-06T13:40:06;691.90;1868.80
55151;DHT22;41041;43.162;20.538;2023-08-06T13:42:32;691.80;1843.20
55151;DHT22;41041;43.162;20.538;2023-08-06T13:44:58;691.80;1843.20
55151;DHT22;41041;43.162;20.538;2023-08-06T13:47:28;691.70;1868.80
55151;DHT22;41041;43.162;20.538;2023-08-06T13:49:54;691.70;1868.80
55151;DHT22;41041;43.162;20.538;2023-08-06T13:52:21;691.60;1868.80
55151;DHT22;41041;43.162;20.538;2023-08-06T13:54:46;691.70;1920.00
55151;DHT22;41041;43.162;20.538;2023-08-06T13:57:17;691.70;1920.00
55151;DHT22;41041;43.162;20.538;2023-08-06T13:59:43;691.70;1894.40
55151;DHT22;41041;43.162;20.538;2023-08-06T14:02:10;691.70;1894.40
55151;DHT22;41041;43.162;20.538;2023-08-06T14:04:36;691.90;1894.40
55151;DHT22;41041;43.162;20.538;2023-08-06T14:07:03;692.00;1894.40
55151;DHT22;41041;43.162;20.538;2023-08-06T14:09:29;692.10;1868.80
55151;DHT22;41041;43.162;20.538;2023-08-06T14:11:55;692.00;1868.80
55151;DHT22;41041;43.162;20.538;2023-08-06T14:14:21;691.90;1894.40
55151;DHT22;41041;43.162;20.538;2023-08-06T14:16:53;691.80;1894.40
55151;DHT22;41041;43.162;20.538;2023-08-06T14:19:20;691.70;1920.00
55151;DHT22;41041;43.162;20.538;2023-08-06T14:21:45;691.70;1894.40
55151;DHT22;41041;43.162;20.538;2023-08-06T14:24:14;691.60;1945.60
55151;DHT22;41041;43.162;20.538;2023-08-06T14:26:40;691.70;1920.00
55151;DHT22;41041;43.162;20.538;2023-08-06T14:29:06;691.70;1920.00
55151;DHT22;41041;43.162;20.538;2023-08-06T14:31:34;691.80;1920.00
55151;DHT22;41041;43.162;20.538;2023-08-06T14:34:00;691.80;1920.00
55151;DHT22;41041;43.162;20.538;2023-08-06T14:36:26;691.80;1920.00
55151;DHT22;41041;43.162;20.538;2023-08-06T14:38:52;692.00;1920.00
55151;DHT22;41041;43.162;20.538;2023-08-06T14:41:31;692.00;1894.40
55151;DHT22;41041;43.162;20.538;2023-08-06T14:43:57;691.80;1894.40
55151;DHT22;41041;43.162;20.538;2023-08-06T14:46:23;692.00;1894.40
55151;DHT22;41041;43.162;20.538;2023-08-06T14:48:49;692.10;1894.40
55151;DHT22;41041;43.162;20.538;2023-08-06T14:51:15;717.10;1894.40
55151;DHT22;41041;43.162;20.538;2023-08-06T14:53:41;717.30;1920.00
55151;DHT22;41041;43.162;20.538;2023-08-06T14:56:07;717.40;1920.00
55151;DHT22;41041;43.162;20.538;2023-08-06T14:58:33;717.10;1920.00
55151;DHT22;41041;43.162;20.538;2023-08-06T15:00:58;717.00;1945.60
55151;DHT22;41041;43.162;20.538;2023-08-06T15:03:24;717.00;1945.60
55151;DHT22;41041;43.162;20.538;2023-08-06T15:05:50;717.10;1945.60
55151;DHT22;41041;43.162;20.538;2023-08-06T15:08:17;717.00;1945.60
55151;DHT22;41041;43.162;20.538;2023-08-06T15:10:43;717.10;1945.60
55151;DHT22;41041;43.162;20.538;2023-08-06T15:13:14;717.10;1971.20
55151;DHT22;41041;43.162;20.538;2023-08-06T15:15:40;717.30;1920.00
55151;DHT22;41041;43.162;20.538;2023-08-06T15:23:01;717.70;1894.40
55151;DHT22;41041;43.162;20.538;2023-08-06T15:47:31;742.80;1868.80
55151;DHT22;41041;43.162;20.538;2023-08-06T15:49:57;742.80;1843.20
55151;DHT22;41041;43.162;20.538;2023-08-06T15:52:23;742.50;1868.80
55151;DHT22;41041;43.162;20.538;2023-08-06T15:54:55;742.70;1868.80
55151;DHT22;41041;43.162;20.538;2023-08-06T15:57:24;743.00;1843.20
55151;DHT22;41041;43.162;20.538;2023-08-06T16:12:11;768.20;1740.80
55151;DHT22;41041;43.162;20.538;2023-08-06T16:14:39;743.30;1740.80
55151;DHT22;41041;43.162;20.538;2023-08-06T16:17:07;743.20;1740.80
55151;DHT22;41041;43.162;20.538;2023-08-06T16:19:37;742.80;1715.20
55151;DHT22;41041;43.162;20.538;2023-08-06T16:22:03;742.80;1766.40
55151;DHT22;41041;43.162;20.538;2023-08-06T16:24:29;742.40;1766.40
55151;DHT22;41041;43.162;20.538;2023-08-06T16:27:04;717.60;1766.40
55151;DHT22;41041;43.162;20.538;2023-08-06T16:29:38;717.40;1792.00
55151;DHT22;41041;43.162;20.538;2023-08-06T16:52:07;640.10;1945.60
55151;DHT22;41041;43.162;20.538;2023-08-06T16:57:00;614.40;2073.60
55151;DHT22;41041;43.162;20.538;2023-08-06T17:06:00;588.90;2432.00
55151;DHT22;41041;43.162;20.538;2023-08-06T17:08:27;588.90;2432.00
55151;DHT22;41041;43.162;20.538;2023-08-06T17:10:59;564.00;2432.00
55151;DHT22;41041;43.162;20.538;2023-08-06T17:13:27;589.10;2432.00
55151;DHT22;41041;43.162;20.538;2023-08-06T17:40:28;615.30;2432.00
55151;DHT22;41041;43.162;20.538;2023-08-06T17:42:54;614.80;2432.00
55151;DHT22;41041;43.162;20.538;2023-08-06T18:49:48;563.30;2432.00
55151;DHT22;41041;43.162;20.538;2023-08-06T22:35:43;486.90;2380.80
55151;DHT22;41041;43.162;20.538;2023-08-06T23:07:28;486.40;2380.80
55151;DHT22;41041;43.162;20.538;2023-08-06T23:09:56;461.70;2380.80
55151;DHT22;41041;43.162;20.538;2023-08-06T23:15:02;486.40;2380.80
55151;DHT22;41041;43.162;20.538;2023-08-06T23:17:31;461.70;2380.80
